createdAt,value
2022-09-23T00:02:05.367Z,95393.50
2022-09-23T00:04:34.757Z,95396.72
2022-09-23T00:07:02.687Z,95393.50
2022-09-23T00:09:30.586Z,95400.84
2022-09-23T00:11:58.693Z,95397.66
2022-09-23T00:14:26.835Z,95400.50
2022-09-23T00:16:54.765Z,95396.53
2022-09-23T00:19:22.893Z,95396.53
2022-09-23T00:21:52.199Z,95392.88
2022-09-23T00:24:20.564Z,95400.66
2022-09-23T00:26:48.498Z,95393.75
2022-09-23T00:29:16.961Z,95392.50
2022-09-23T00:31:44.923Z,95390.91
2022-09-23T00:34:13.228Z,95386.16
2022-09-23T00:36:41.345Z,95385.69
2022-09-23T00:39:10.753Z,95384.66
2022-09-23T00:41:38.719Z,95391.00
2022-09-23T00:44:41.805Z,95385.19
2022-09-23T00:47:15.180Z,95386.72
2022-09-23T00:49:45.613Z,95389.34
2022-09-23T00:52:18.098Z,95383.53
2022-09-23T00:54:48.221Z,95379.78
2022-09-23T00:57:20.209Z,95377.72
2022-09-23T00:59:50.668Z,95382.97
2022-09-23T01:02:21.099Z,95384.56
2022-09-23T01:04:50.885Z,95386.72
2022-09-23T01:07:18.958Z,95388.31
2022-09-23T01:09:49.668Z,95388.22
2022-09-23T01:12:31.574Z,95385.94
2022-09-23T01:15:14.259Z,95381.66
2022-09-23T01:17:50.443Z,95387.38
2022-09-23T01:20:37.878Z,95384.66
2022-09-23T01:23:23.435Z,95375.09
2022-09-23T01:26:23.460Z,95392.88
2022-09-23T01:29:12.684Z,95391.28
2022-09-23T01:31:47.305Z,95387.63
2022-09-23T01:34:24.291Z,95379.31
2022-09-23T01:36:58.076Z,95382.72
2022-09-23T01:39:36.697Z,95384.75
2022-09-23T01:42:11.293Z,95377.72
2022-09-23T01:44:47.289Z,95381.94
2022-09-23T01:47:20.260Z,95378.72
2022-09-23T01:49:53.377Z,95384.44
2022-09-23T01:52:27.934Z,95388.56
2022-09-23T01:55:02.861Z,95387.09
2022-09-23T01:57:37.375Z,95388.38
2022-09-23T02:00:10.538Z,95385.19
2022-09-23T02:02:50.083Z,95380.59
2022-09-23T02:05:23.398Z,95375.34
2022-09-23T02:07:59.480Z,95377.41
2022-09-23T02:10:33.801Z,95377.88
2022-09-23T02:13:06.436Z,95376.06
2022-09-23T02:15:38.049Z,95373.06
2022-09-23T02:18:13.839Z,95374.25
2022-09-23T02:20:42.032Z,95375.75
2022-09-23T02:23:13.314Z,95374.59
2022-09-23T02:25:46.598Z,95374.94
2022-09-23T02:28:19.331Z,95373.78
2022-09-23T02:30:53.237Z,95373.00
2022-09-23T02:33:26.670Z,95371.03
2022-09-23T02:36:01.224Z,95372.53
2022-09-23T02:38:35.693Z,95359.44
2022-09-23T02:41:11.325Z,95359.44
2022-09-23T02:43:47.439Z,95358.97
2022-09-23T02:46:16.386Z,95360.13
2022-09-23T02:48:51.176Z,95362.19
2022-09-23T02:51:19.259Z,95358.97
2022-09-23T02:53:49.047Z,95352.13
2022-09-23T02:56:21.109Z,95349.41
2022-09-23T02:58:50.526Z,95352.59
2022-09-23T03:01:39.224Z,95357.84
2022-09-23T03:04:17.072Z,95356.72
2022-09-23T03:06:54.416Z,95359.44
2022-09-23T03:09:28.403Z,95371.41
2022-09-23T03:12:06.554Z,95371.41
2022-09-23T03:14:43.316Z,95370.38
2022-09-23T03:17:17.821Z,95372.22
2022-09-23T03:19:51.950Z,95376.78
2022-09-23T03:22:25.921Z,95370.72
2022-09-23T03:24:59.747Z,95378.38
2022-09-23T03:27:31.634Z,95383.28
2022-09-23T03:30:00.633Z,95386.00
2022-09-23T03:32:30.202Z,95382.00
2022-09-23T03:35:02.037Z,95378.47
2022-09-23T03:37:34.935Z,95381.31
2022-09-23T03:40:09.977Z,95386.09
2022-09-23T03:42:39.261Z,95392.94
2022-09-23T03:45:10.908Z,95393.16
2022-09-23T03:47:39.551Z,95391.34
2022-09-23T03:50:09.815Z,95388.63
2022-09-23T03:52:39.736Z,95389.53
2022-09-23T03:55:08.985Z,95377.91
2022-09-23T03:57:36.967Z,95380.41
2022-09-23T04:00:06.867Z,95373.13
2022-09-23T04:02:39.917Z,95378.38
2022-09-23T04:05:10.295Z,95374.25
2022-09-23T04:07:38.297Z,95375.97
2022-09-23T04:10:07.428Z,95372.44
2022-09-23T04:12:35.319Z,95382.91
2022-09-23T04:15:03.255Z,95370.59
2022-09-23T04:17:31.269Z,95373.47
2022-09-23T04:19:59.346Z,95369.03
2022-09-23T04:22:28.756Z,95370.28
2022-09-23T04:24:56.694Z,95370.97
2022-09-23T04:27:24.663Z,95371.78
2022-09-23T04:29:52.576Z,95381.56
2022-09-23T04:32:20.632Z,95382.47
2022-09-23T04:34:48.526Z,95391.34
2022-09-23T04:37:16.492Z,95387.72
2022-09-23T04:39:45.725Z,95386.91
2022-09-23T04:42:14.169Z,95389.41
2022-09-23T04:44:42.064Z,95389.66
2022-09-23T04:47:10.067Z,95398.63
2022-09-23T04:49:38.412Z,95386.44
2022-09-23T04:52:06.679Z,95386.78
2022-09-23T04:54:34.645Z,95388.38
2022-09-23T04:57:04.049Z,95386.34
2022-09-23T04:59:32.096Z,95383.47
2022-09-23T05:02:00.023Z,95383.06
2022-09-23T05:04:27.971Z,95397.19
2022-09-23T05:06:57.482Z,95389.97
2022-09-23T05:09:28.756Z,95389.50
2022-09-23T05:11:56.773Z,95389.09
2022-09-23T05:14:26.120Z,95389.97
2022-09-23T05:16:54.265Z,95394.41
2022-09-23T05:19:22.268Z,95398.53
2022-09-23T05:21:50.171Z,95403.41
2022-09-23T05:24:18.109Z,95401.16
2022-09-23T05:26:46.065Z,95401.16
2022-09-23T05:29:14.063Z,95403.16
2022-09-23T05:31:43.358Z,95395.31
2022-09-23T05:34:11.348Z,95403.88
2022-09-23T05:36:39.413Z,95400.22
2022-09-23T05:39:08.854Z,95408.09
2022-09-23T05:41:37.447Z,95406.50
2022-09-23T05:44:05.736Z,95407.84
2022-09-23T05:46:34.274Z,95401.03
2022-09-23T05:49:05.624Z,95408.44
2022-09-23T05:51:35.121Z,95403.22
2022-09-23T05:54:04.060Z,95409.59
2022-09-23T05:56:33.656Z,95395.00
2022-09-23T05:59:03.072Z,95402.28
2022-09-23T06:01:34.218Z,95403.44
2022-09-23T06:04:06.019Z,95415.03
2022-09-23T06:06:36.249Z,95409.47
2022-09-23T06:09:05.385Z,95404.34
2022-09-23T06:11:36.381Z,95401.03
2022-09-23T06:14:05.102Z,95413.91
2022-09-23T06:16:34.827Z,95408.53
2022-09-23T06:19:06.998Z,95405.25
2022-09-23T06:21:37.178Z,95412.19
2022-09-23T06:24:06.356Z,95408.09
2022-09-23T06:26:35.258Z,95414.59
2022-09-23T06:29:04.466Z,95406.34
2022-09-23T06:31:33.024Z,95406.91
2022-09-23T06:34:12.345Z,95415.34
2022-09-23T06:36:45.064Z,95408.16
2022-09-23T06:39:14.809Z,95410.88
2022-09-23T06:41:42.834Z,95403.94
2022-09-23T06:44:14.043Z,95407.00
2022-09-23T06:46:42.132Z,95410.88
2022-09-23T06:49:13.367Z,95408.81
2022-09-23T06:51:42.846Z,95405.03
2022-09-23T06:54:11.176Z,95410.16
2022-09-23T06:56:40.038Z,95412.38
2022-09-23T06:59:10.490Z,95404.50
2022-09-23T07:01:38.569Z,95403.00
2022-09-23T07:04:07.484Z,95405.72
2022-09-23T07:06:35.797Z,95400.03
2022-09-23T07:09:06.374Z,95403.78
2022-09-23T07:11:34.962Z,95405.91
2022-09-23T07:14:03.026Z,95415.47
2022-09-23T07:16:31.711Z,95409.75
2022-09-23T07:18:59.824Z,95405.84
2022-09-23T07:21:27.988Z,95415.66
2022-09-23T07:23:58.143Z,95416.13
2022-09-23T07:26:27.743Z,95414.34
2022-09-23T07:28:57.012Z,95421.03
2022-09-23T07:31:37.076Z,95413.22
2022-09-23T07:34:07.295Z,95412.28
2022-09-23T07:36:37.406Z,95413.13
2022-09-23T07:39:06.281Z,95419.81
2022-09-23T07:41:37.206Z,95424.38
2022-09-23T07:44:06.302Z,95426.38
2022-09-23T07:46:36.505Z,95434.09
2022-09-23T07:49:05.751Z,95437.84
2022-09-23T07:51:36.785Z,95435.31
2022-09-23T07:54:07.795Z,95430.34
2022-09-23T07:56:38.356Z,95435.13
2022-09-23T07:59:08.673Z,95440.38
2022-09-23T08:01:39.216Z,95430.44
2022-09-23T08:04:09.593Z,95439.28
2022-09-23T08:06:42.153Z,95444.44
2022-09-23T08:09:10.728Z,95441.41
2022-09-23T08:11:42.181Z,95446.94
2022-09-23T08:14:10.701Z,95444.56
2022-09-23T08:16:39.900Z,95453.63
2022-09-23T08:19:08.018Z,95445.91
2022-09-23T08:21:37.639Z,95446.53
2022-09-23T08:24:05.933Z,95452.81
2022-09-23T08:26:34.321Z,95439.59
2022-09-23T08:29:03.867Z,95458.06
2022-09-23T08:31:31.951Z,95452.16
2022-09-23T08:34:00.539Z,95457.88
2022-09-23T08:36:28.961Z,95447.56
2022-09-23T08:38:57.316Z,95452.28
2022-09-23T08:41:33.237Z,95454.81
2022-09-23T08:44:12.070Z,95448.59
2022-09-23T08:46:46.492Z,95445.72
2022-09-23T08:49:23.642Z,95445.00
2022-09-23T08:51:54.876Z,95442.91
2022-09-23T08:54:23.914Z,95446.19
2022-09-23T08:56:53.383Z,95440.47
2022-09-23T08:59:29.818Z,95444.69
2022-09-23T09:02:01.256Z,95440.59
2022-09-23T09:04:40.580Z,95437.56
2022-09-23T09:10:10.967Z,95430.03
2022-09-23T09:12:43.501Z,95428.88
2022-09-23T09:15:16.567Z,95424.50
2022-09-23T09:17:59.229Z,95423.03
2022-09-23T09:20:36.128Z,95419.34
2022-09-23T09:23:16.188Z,95415.97
2022-09-23T09:25:46.544Z,95411.50
2022-09-23T09:28:23.117Z,95410.00
2022-09-23T09:30:57.155Z,95409.59
2022-09-23T09:33:33.252Z,95406.03
2022-09-23T09:36:11.501Z,95399.25
2022-09-23T09:38:39.493Z,95397.16
2022-09-23T09:41:15.852Z,95395.97
2022-09-23T09:43:49.169Z,95388.41
2022-09-23T09:46:34.189Z,95393.72
2022-09-23T09:49:06.367Z,95389.50
2022-09-23T09:51:35.567Z,95390.03
2022-09-23T09:54:18.260Z,95393.25
2022-09-23T09:59:23.180Z,95384.50
2022-09-23T10:02:24.232Z,95384.22
2022-09-23T10:05:01.301Z,95387.66
2022-09-23T10:07:31.831Z,95387.44
2022-09-23T10:10:28.814Z,95384.53
2022-09-23T10:13:15.714Z,95382.66
2022-09-23T10:15:45.844Z,95374.28
2022-09-23T10:18:21.431Z,95374.28
2022-09-23T10:20:49.569Z,95373.75
2022-09-23T10:23:24.258Z,95359.78
2022-09-23T10:26:00.724Z,95363.84
2022-09-23T10:28:43.044Z,95360.75
2022-09-23T10:31:15.094Z,95359.78
2022-09-23T10:33:49.679Z,95352.13
2022-09-23T10:36:18.968Z,95355.59
2022-09-23T10:38:50.736Z,95350.88
2022-09-23T10:41:47.449Z,95346.66
2022-09-23T10:44:48.448Z,95345.63
2022-09-23T10:47:30.155Z,95345.38
2022-09-23T10:50:11.817Z,95344.59
2022-09-23T10:52:49.086Z,95338.78
2022-09-23T10:55:32.978Z,95339.88
2022-09-23T10:58:37.267Z,95339.59
2022-09-23T11:01:19.415Z,95333.50
2022-09-23T11:04:13.892Z,95327.19
2022-09-23T11:07:01.484Z,95330.34
2022-09-23T11:09:41.993Z,95331.94
2022-09-23T11:12:22.050Z,95323.47
2022-09-23T11:15:04.222Z,95329.81
2022-09-23T11:17:49.265Z,95329.78
2022-09-23T11:20:33.005Z,95324.50
2022-09-23T11:23:30.781Z,95320.25
2022-09-23T11:26:09.462Z,95310.69
2022-09-23T11:28:57.587Z,95310.22
2022-09-23T11:31:38.291Z,95316.59
2022-09-23T11:34:26.489Z,95320.84
2022-09-23T11:36:58.756Z,95313.69
2022-09-23T11:39:32.975Z,95304.41
2022-09-23T11:42:02.817Z,95303.84
2022-09-23T11:44:35.616Z,95304.91
2022-09-23T11:47:08.703Z,95304.34
2022-09-23T11:49:42.268Z,95303.75
2022-09-23T11:52:13.826Z,95299.44
2022-09-23T11:54:51.184Z,95295.16
2022-09-23T11:57:25.375Z,95292.75
2022-09-23T12:00:00.226Z,95300.44
2022-09-23T12:02:41.729Z,95298.53
2022-09-23T12:05:14.010Z,95284.47
2022-09-23T12:07:54.476Z,95281.84
2022-09-23T12:10:28.671Z,95275.84
2022-09-23T12:13:06.526Z,95268.69
2022-09-23T12:15:44.254Z,95271.53
2022-09-23T12:18:28.968Z,95268.94
2022-09-23T12:21:49.104Z,95276.06
2022-09-23T12:24:45.938Z,95255.91
2022-09-23T12:27:24.447Z,95274.41
2022-09-23T12:29:56.904Z,95265.16
2022-09-23T12:32:25.304Z,95266.56
2022-09-23T12:34:55.411Z,95267.06
2022-09-23T12:37:29.570Z,95271.84
2022-09-23T12:40:02.361Z,95268.41
2022-09-23T12:42:31.995Z,95267.53
2022-09-23T12:45:35.084Z,95264.38
2022-09-23T12:48:05.125Z,95261.22
2022-09-23T12:51:15.085Z,95258.53
2022-09-23T12:53:56.655Z,95250.06
2022-09-23T12:56:28.333Z,95239.72
2022-09-23T12:59:25.779Z,95239.13
2022-09-23T13:01:54.475Z,95233.47
2022-09-23T13:04:48.875Z,95225.47
2022-09-23T13:07:19.276Z,95218.56
2022-09-23T13:09:52.021Z,95214.88
2022-09-23T13:12:25.053Z,95210.63
2022-09-23T13:14:58.083Z,95205.59
2022-09-23T13:17:31.662Z,95206.91
2022-09-23T13:20:03.379Z,95217.81
2022-09-23T13:22:42.802Z,95203.69
2022-09-23T13:25:21.407Z,95204.66
2022-09-23T13:27:52.849Z,95210.06
2022-09-23T13:30:26.442Z,95203.31
2022-09-23T13:33:04.249Z,95204.41
2022-09-23T13:35:36.777Z,95196.22
2022-09-23T13:38:12.584Z,95192.22
2022-09-23T13:40:45.181Z,95189.72
2022-09-23T13:43:20.220Z,95190.53
2022-09-23T13:45:48.697Z,95179.06
2022-09-23T13:48:17.080Z,95184.44
2022-09-23T13:50:48.634Z,95187.38
2022-09-23T13:53:23.239Z,95173.03
2022-09-23T13:56:04.408Z,95173.03
2022-09-23T13:58:34.272Z,95175.41
2022-09-23T14:01:02.701Z,95176.47
2022-09-23T14:03:36.572Z,95170.66
2022-09-23T14:06:08.775Z,95179.31
2022-09-23T14:08:39.393Z,95173.00
2022-09-23T14:11:08.699Z,95173.28
2022-09-23T14:13:43.098Z,95166.19
2022-09-23T14:16:15.908Z,95167.56
2022-09-23T14:18:47.596Z,95170.19
2022-09-23T14:21:28.408Z,95171.28
2022-09-23T14:23:56.460Z,95176.63
2022-09-23T14:26:27.199Z,95165.81
2022-09-23T14:28:55.309Z,95168.22
2022-09-23T14:31:24.832Z,95163.47
2022-09-23T14:33:52.897Z,95162.44
2022-09-23T14:36:38.423Z,95158.16
2022-09-23T14:39:09.459Z,95164.03
2022-09-23T14:41:40.856Z,95140.69
2022-09-23T14:44:19.524Z,95140.69
2022-09-23T14:46:56.531Z,95153.53
2022-09-23T14:49:25.540Z,95146.09
2022-09-23T14:51:56.148Z,95145.03
2022-09-23T14:54:37.805Z,95143.50
2022-09-23T14:57:27.480Z,95142.38
2022-09-23T14:59:59.760Z,95136.50
2022-09-23T15:02:33.750Z,95147.09
2022-09-23T15:05:17.090Z,95122.31
2022-09-23T15:07:49.788Z,95128.69
2022-09-23T15:10:23.670Z,95129.25
2022-09-23T15:12:55.656Z,95134.56
2022-09-23T15:15:29.137Z,95134.00
2022-09-23T15:18:03.793Z,95140.34
2022-09-23T15:20:31.986Z,95137.16
2022-09-23T15:22:59.994Z,95135.03
2022-09-23T15:25:32.371Z,95131.06
2022-09-23T15:28:04.293Z,95128.69
2022-09-23T15:30:32.736Z,95136.63
2022-09-23T15:33:01.111Z,95130.28
2022-09-23T15:35:31.871Z,95126.59
2022-09-23T15:38:01.726Z,95130.84
2022-09-23T15:40:31.471Z,95126.03
2022-09-23T15:43:01.287Z,95125.31
2022-09-23T15:45:34.399Z,95130.94
2022-09-23T15:48:07.398Z,95124.06
2022-09-23T15:50:36.151Z,95135.22
2022-09-23T15:53:05.632Z,95119.84
2022-09-23T15:55:33.653Z,95117.75
2022-09-23T15:58:01.684Z,95116.16
2022-09-23T16:00:31.168Z,95130.44
2022-09-23T16:02:59.067Z,95120.91
2022-09-23T16:05:33.100Z,95120.16
2022-09-23T16:08:04.930Z,95124.19
2022-09-23T16:10:36.106Z,95121.59
2022-09-23T16:13:05.893Z,95124.75
2022-09-23T16:15:35.763Z,95116.34
2022-09-23T16:18:03.681Z,95106.88
2022-09-23T16:20:31.729Z,95113.75
2022-09-23T16:23:02.339Z,95112.44
2022-09-23T16:25:35.938Z,95115.38
2022-09-23T16:28:05.502Z,95114.31
2022-09-23T16:30:36.124Z,95115.97
2022-09-23T16:33:04.174Z,95122.88
2022-09-23T16:35:34.727Z,95114.72
2022-09-23T16:38:02.695Z,95123.97
2022-09-23T16:40:31.975Z,95127.97
2022-09-23T16:43:02.201Z,95124.25
2022-09-23T16:45:31.168Z,95109.69
2022-09-23T16:48:00.578Z,95113.94
2022-09-23T16:50:29.379Z,95121.34
2022-09-23T16:52:57.291Z,95108.66
2022-09-23T16:55:27.340Z,95111.31
2022-09-23T16:57:55.890Z,95109.22
2022-09-23T17:00:42.671Z,95109.25
2022-09-23T17:03:31.427Z,95107.94
2022-09-23T17:06:01.546Z,95111.97
2022-09-23T17:08:32.547Z,95099.53
2022-09-23T17:11:01.756Z,95095.31
2022-09-23T17:13:30.969Z,95092.41
2022-09-23T17:15:59.218Z,95096.91
2022-09-23T17:18:28.704Z,95095.56
2022-09-23T17:21:01.549Z,95091.28
2022-09-23T17:23:31.431Z,95089.72
2022-09-23T17:26:00.195Z,95092.38
2022-09-23T17:28:28.543Z,95095.56
2022-09-23T17:30:59.069Z,95103.50
2022-09-23T17:33:30.135Z,95094.00
2022-09-23T17:36:00.167Z,95095.06
2022-09-23T17:38:29.617Z,95081.88
2022-09-23T17:41:01.350Z,95082.97
2022-09-23T17:43:31.694Z,95076.13
2022-09-23T17:46:06.522Z,95067.66
2022-09-23T17:48:38.104Z,95064.50
2022-09-23T17:51:07.845Z,95058.69
2022-09-23T17:53:38.610Z,95051.28
2022-09-23T17:56:09.108Z,95044.44
2022-09-23T17:58:38.673Z,95049.72
2022-09-23T18:01:10.855Z,95048.69
2022-09-23T18:03:43.381Z,95049.78
2022-09-23T18:06:14.121Z,95036.56
2022-09-23T18:08:43.162Z,95034.97
2022-09-23T18:11:15.800Z,95034.47
2022-09-23T18:13:44.027Z,95047.94
2022-09-23T18:16:11.995Z,95051.91
2022-09-23T18:18:41.407Z,95065.38
2022-09-23T18:21:10.425Z,95061.16
2022-09-23T18:23:38.659Z,95057.69
2022-09-23T18:26:14.246Z,95072.50
2022-09-23T18:28:42.815Z,95067.75
2022-09-23T18:31:11.733Z,95070.94
2022-09-23T18:33:41.650Z,95068.81
2022-09-23T18:36:10.296Z,95076.72
2022-09-23T18:38:38.246Z,95080.97
2022-09-23T18:41:07.257Z,95074.63
2022-09-23T18:43:41.431Z,95086.22
2022-09-23T18:46:14.429Z,95080.94
2022-09-23T18:49:01.734Z,95074.84
2022-09-23T18:51:31.977Z,95075.66
2022-09-23T18:54:01.475Z,95084.09
2022-09-23T18:56:33.522Z,95082.28
2022-09-23T18:59:01.695Z,95081.75
2022-09-23T19:01:29.677Z,95087.84
2022-09-23T19:04:02.067Z,95078.63
2022-09-23T19:06:32.347Z,95083.63
2022-09-23T19:09:00.308Z,95073.09
2022-09-23T19:11:28.611Z,95074.66
2022-09-23T19:13:58.583Z,95081.00
2022-09-23T19:16:27.296Z,95086.28
2022-09-23T19:18:55.452Z,95089.97
2022-09-23T19:21:25.132Z,95093.19
2022-09-23T19:23:55.402Z,95094.25
2022-09-23T19:26:26.378Z,95094.00
2022-09-23T19:28:56.013Z,95095.81
2022-09-23T19:31:26.009Z,95092.63
2022-09-23T19:33:58.104Z,95093.19
2022-09-23T19:36:29.620Z,95094.25
2022-09-23T19:38:59.185Z,95099.50
2022-09-23T19:41:32.290Z,95099.53
2022-09-23T19:44:03.375Z,95106.91
2022-09-23T19:46:32.446Z,95111.91
2022-09-23T19:49:01.607Z,95115.91
2022-09-23T19:51:31.207Z,95115.38
2022-09-23T19:53:59.109Z,95116.94
2022-09-23T19:56:27.033Z,95109.56
2022-09-23T19:58:57.176Z,95120.09
2022-09-23T20:01:26.440Z,95117.47
2022-09-23T20:03:54.934Z,95118.53
2022-09-23T20:06:23.639Z,95118.25
2022-09-23T20:08:52.985Z,95121.16
2022-09-23T20:11:27.616Z,95119.03
2022-09-23T20:14:01.188Z,95112.69
2022-09-23T20:16:32.178Z,95110.63
2022-09-23T20:19:01.329Z,95112.19
2022-09-23T20:21:30.215Z,95100.84
2022-09-23T20:23:59.834Z,95109.00
2022-09-23T20:26:45.179Z,95105.31
2022-09-23T20:29:13.274Z,95105.31
2022-09-23T20:31:41.617Z,95104.53
2022-09-23T20:34:11.104Z,95104.81
2022-09-23T20:36:41.346Z,95103.22
2022-09-23T20:39:11.217Z,95095.28
2022-09-23T20:41:40.325Z,95095.81
2022-09-23T20:44:12.564Z,95101.09
2022-09-23T20:46:46.771Z,95102.41
2022-09-23T20:49:16.245Z,95103.72
2022-09-23T20:51:45.589Z,95107.97
2022-09-23T20:54:14.889Z,95118.50
2022-09-23T20:56:42.851Z,95125.91
2022-09-23T20:59:11.648Z,95120.34
2022-09-23T21:01:39.667Z,95127.47
2022-09-23T21:04:09.728Z,95132.72
2022-09-23T21:06:39.258Z,95131.13
2022-09-23T21:09:08.871Z,95135.88
2022-09-23T21:11:38.600Z,95142.78
2022-09-23T21:14:06.884Z,95143.31
2022-09-23T21:16:35.178Z,95136.44
2022-09-23T21:19:04.100Z,95132.75
2022-09-23T21:21:32.071Z,95138.56
2022-09-23T21:24:17.286Z,95130.59
2022-09-23T21:26:50.499Z,95137.72
2022-09-23T21:29:19.272Z,95131.69
2022-09-23T21:31:49.588Z,95136.44
2022-09-23T21:34:17.757Z,95135.66
2022-09-23T21:36:48.077Z,95143.31
2022-09-23T21:39:16.223Z,95143.81
2022-09-23T21:41:44.145Z,95142.50
2022-09-23T21:44:13.456Z,95142.78
2022-09-23T21:46:41.498Z,95143.84
2022-09-23T21:49:09.849Z,95140.69
2022-09-23T21:51:40.501Z,95134.88
2022-09-23T21:54:14.156Z,95134.09
2022-09-23T21:56:43.205Z,95131.72
2022-09-23T21:59:11.469Z,95137.00
2022-09-23T22:01:44.541Z,95124.84
2022-09-23T22:04:16.207Z,95133.81
2022-09-23T22:06:44.374Z,95127.50
2022-09-23T22:09:15.471Z,95131.19
2022-09-23T22:12:01.248Z,95127.50
2022-09-23T22:14:30.609Z,95126.94
2022-09-23T22:17:02.745Z,95125.38
2022-09-23T22:19:34.979Z,95127.50
2022-09-23T22:22:06.775Z,95116.41
2022-09-23T22:24:34.797Z,95116.41
2022-09-23T22:27:02.722Z,95111.94
2022-09-23T22:29:48.209Z,95113.25
2022-09-23T22:32:36.557Z,95105.06
2022-09-23T22:35:05.071Z,95095.81
2022-09-23T22:37:35.665Z,95096.38
2022-09-23T22:40:05.071Z,95101.09
2022-09-23T22:42:33.392Z,95105.81
2022-09-23T22:45:01.509Z,95103.19
2022-09-23T22:47:31.052Z,95100.53
2022-09-23T22:49:58.954Z,95103.19
2022-09-23T22:52:27.021Z,95101.59
2022-09-23T22:54:54.939Z,95098.69
2022-09-23T22:57:22.869Z,95104.25
2022-09-23T22:59:50.799Z,95103.72
2022-09-23T23:02:20.272Z,95106.81
2022-09-23T23:04:50.096Z,95122.44
2022-09-23T23:07:21.287Z,95111.56
2022-09-23T23:09:50.575Z,95112.34
2022-09-23T23:12:19.980Z,95108.59
2022-09-23T23:14:48.208Z,95099.25
2022-09-23T23:17:16.359Z,95105.56
2022-09-23T23:19:44.302Z,95099.06
2022-09-23T23:22:13.633Z,95094.97
2022-09-23T23:24:41.631Z,95094.28
2022-09-23T23:27:09.525Z,95096.84
2022-09-23T23:29:37.516Z,95090.03
2022-09-23T23:32:07.654Z,95087.75
2022-09-23T23:34:35.626Z,95093.09
2022-09-23T23:37:03.540Z,95084.84
2022-09-23T23:39:32.824Z,95088.44
2022-09-23T23:42:01.058Z,95086.84
2022-09-23T23:44:30.556Z,95091.63
2022-09-23T23:46:58.490Z,95083.81
2022-09-23T23:49:26.457Z,95067.47
2022-09-23T23:51:54.449Z,95075.88
2022-09-23T23:54:22.703Z,95061.66
2022-09-23T23:56:52.119Z,95075.84
2022-09-23T23:59:20.993Z,95072.38
